Time;durP1;ratioP1;P1;durP2;ratioP2;P2;SDS_P1;SDS_P2;PMS_P1;PMS_P2;Temp;Humidity;BMP_temperature;BMP_pressure;BME280_temperature;BME280_humidity;BME280_pressure;Samples;Min_cycle;Max_cycle;Signal;HPM_P1;HPM_P2
2023/02/26 00:00:51;;;;;;;7.93;4.93;;;;;;;1.91;86.57;97563.81;4195007;28;20200;-84
2023/02/26 00:02:56;;;;;;;8.98;5.65;;;;;;;1.93;86.50;97568.91;4200369;28;20243;-84
2023/02/26 00:04:59;;;;;;;15.80;8.65;;;;;;;1.82;85.93;97573.66;4202573;28;20569;-84
2023/02/26 00:07:03;;;;;;;11.50;6.97;;;;;;;1.84;86.21;97574.44;4194661;28;20307;-83
2023/02/26 00:09:07;;;;;;;12.70;6.93;;;;;;;1.87;86.19;97566.59;4201576;28;20203;-84
2023/02/26 00:11:11;;;;;;;8.05;5.10;;;;;;;1.88;86.60;97565.69;4193300;28;20263;-84
2023/02/26 00:13:15;;;;;;;7.80;4.95;;;;;;;1.90;86.27;97569.84;4194227;28;20761;-83
2023/02/26 00:15:19;;;;;;;7.07;4.60;;;;;;;1.88;86.05;97570.84;4203657;28;20205;-84
2023/02/26 00:17:41;;;;;;;8.77;5.25;;;;;;;1.86;86.37;97567.47;4198601;28;20247;-84
2023/02/26 00:19:46;;;;;;;6.65;3.78;;;;;;;1.84;86.10;97563.31;4204179;28;20213;-84
2023/02/26 00:21:49;;;;;;;7.38;5.40;;;;;;;1.76;87.07;97573.94;4200245;28;20295;-84
2023/02/26 00:23:53;;;;;;;5.60;3.72;;;;;;;1.74;87.05;97577.44;4193041;28;20292;-84
2023/02/26 00:25:57;;;;;;;5.32;3.65;;;;;;;1.71;86.90;97578.41;4199647;28;20677;-84
2023/02/26 00:28:01;;;;;;;7.35;3.55;;;;;;;1.71;87.08;97575.84;4202366;28;20285;-84
2023/02/26 00:30:06;;;;;;;6.47;2.80;;;;;;;1.69;87.17;97580.22;4188393;28;20309;-84
2023/02/26 00:32:10;;;;;;;4.60;2.97;;;;;;;1.67;86.50;97571.75;4203013;28;20207;-84
2023/02/26 00:34:14;;;;;;;5.75;3.05;;;;;;;1.63;86.88;97584.78;4204647;28;20220;-84
2023/02/26 00:36:22;;;;;;;5.45;2.90;;;;;;;1.60;86.34;97585.72;4205643;28;20204;-83
2023/02/26 00:38:27;;;;;;;4.07;3.00;;;;;;;1.57;86.72;97585.84;4187658;28;20704;-84
2023/02/26 00:40:36;;;;;;;4.20;2.75;;;;;;;1.53;86.41;97579.19;4194861;28;20215;-84
2023/02/26 00:42:40;;;;;;;5.88;3.20;;;;;;;1.51;86.71;97578.41;4194761;28;20723;-83
2023/02/26 00:44:44;;;;;;;3.08;2.40;;;;;;;1.51;87.40;97582.72;4192093;28;20703;-83
2023/02/26 00:46:51;;;;;;;5.68;3.22;;;;;;;1.50;87.46;97584.47;4199512;28;20624;-80
2023/02/26 00:49:00;;;;;;;3.90;3.10;;;;;;;1.51;87.25;97583.53;4196081;28;20567;-80
2023/02/26 00:51:10;;;;;;;4.32;2.88;;;;;;;1.53;87.52;97583.47;4185856;28;20209;-80
2023/02/26 00:53:20;;;;;;;3.53;2.70;;;;;;;1.53;87.60;97594.59;4182509;28;20629;-80
2023/02/26 00:55:23;;;;;;;6.80;3.20;;;;;;;1.52;87.39;97587.78;4194587;28;20208;-80
2023/02/26 00:57:26;;;;;;;4.53;3.03;;;;;;;1.52;86.74;97594.69;4190610;28;20268;-80
2023/02/26 00:59:29;;;;;;;4.70;3.13;;;;;;;1.52;86.83;97590.38;4206319;28;20219;-80
2023/02/26 01:01:33;;;;;;;4.60;3.30;;;;;;;1.52;87.17;97595.50;4199367;28;20225;-80
2023/02/26 01:03:37;;;;;;;4.30;3.20;;;;;;;1.51;86.54;97588.69;4200945;28;20213;-81
2023/02/26 01:05:41;;;;;;;5.03;3.00;;;;;;;1.49;86.08;97585.34;4199299;28;20233;-80
2023/02/26 01:07:47;;;;;;;4.03;2.90;;;;;;;1.44;86.09;97582.16;4199359;28;20235;-80
2023/02/26 01:09:52;;;;;;;7.60;3.03;;;;;;;1.39;85.36;97586.59;4191902;28;20719;-80
2023/02/26 01:12:00;;;;;;;7.75;6.57;;;;;;;1.36;85.03;97591.03;4199257;28;20707;-80
2023/02/26 01:14:04;;;;;;;4.35;3.00;;;;;;;1.28;85.19;97587.09;4202050;28;20200;-80
2023/02/26 01:16:12;;;;;;;4.75;3.25;;;;;;;1.16;84.19;97587.63;4197544;28;20217;-80
2023/02/26 01:18:19;;;;;;;4.30;2.95;;;;;;;1.04;84.21;97578.66;4204076;28;20680;-80
2023/02/26 01:20:24;;;;;;;5.90;4.72;;;;;;;0.99;84.50;97584.84;4202885;28;20236;-80
2023/02/26 01:22:31;;;;;;;5.50;3.88;;;;;;;0.97;84.52;97577.22;4193207;28;20586;-80
2023/02/26 01:24:34;;;;;;;6.22;3.72;;;;;;;0.94;84.29;97577.34;4206115;28;20633;-80
2023/02/26 01:26:39;;;;;;;5.00;4.10;;;;;;;0.89;85.23;97581.00;4202313;28;20213;-80
2023/02/26 01:28:43;;;;;;;9.50;4.60;;;;;;;0.88;85.28;97581.88;4203110;28;20229;-80
2023/02/26 01:30:47;;;;;;;8.40;4.85;;;;;;;0.87;86.05;97574.25;4188683;28;20641;-80
2023/02/26 01:32:56;;;;;;;8.00;4.20;;;;;;;0.83;85.65;97576.09;4197971;28;20229;-80
2023/02/26 01:35:02;;;;;;;5.10;3.95;;;;;;;0.82;85.55;97577.00;4200765;28;20219;-81
2023/02/26 01:37:18;;;;;;;5.40;4.32;;;;;;;0.80;85.68;97572.81;4195988;28;20186;-80
2023/02/26 01:39:29;;;;;;;7.65;5.22;;;;;;;0.72;85.29;97575.69;4199629;28;20553;-80
2023/02/26 01:41:36;;;;;;;7.63;4.95;;;;;;;0.69;84.94;97578.38;4195584;28;20223;-80
2023/02/26 01:43:46;;;;;;;7.22;5.35;;;;;;;0.67;85.25;97577.56;4203980;28;20625;-81
2023/02/26 01:45:56;;;;;;;7.18;4.50;;;;;;;0.66;85.28;97577.63;4198934;28;20204;-80
2023/02/26 01:48:03;;;;;;;5.85;4.78;;;;;;;0.63;85.19;97576.03;4189901;28;20263;-81
2023/02/26 01:50:13;;;;;;;6.20;4.53;;;;;;;0.64;84.68;97572.56;4206784;28;20200;-81
2023/02/26 01:53:05;;;;;;;6.88;4.60;;;;;;;0.70;85.07;97574.06;4204086;28;20201;-81
2023/02/26 01:55:08;;;;;;;4.75;3.58;;;;;;;0.70;85.35;97576.63;4148873;28;20845;-81
2023/02/26 01:57:14;;;;;;;4.72;3.55;;;;;;;0.71;85.36;97575.75;4174019;28;20243;-81
2023/02/26 01:59:23;;;;;;;4.80;3.80;;;;;;;0.71;85.68;97579.13;4195827;28;20222;-83
2023/02/26 02:01:26;;;;;;;4.85;3.80;;;;;;;0.74;85.67;97580.75;4213712;28;20208;-83
2023/02/26 02:03:32;;;;;;;5.72;3.83;;;;;;;0.70;85.39;97582.59;4188709;28;20283;-83
2023/02/26 02:05:41;;;;;;;4.93;3.40;;;;;;;0.66;85.68;97580.19;4188527;28;20285;-83
2023/02/26 02:07:45;;;;;;;4.40;3.60;;;;;;;0.67;85.56;97577.56;4197519;28;21968;-83
2023/02/26 02:09:49;;;;;;;4.10;3.15;;;;;;;0.65;85.19;97584.50;4194226;28;20220;-83
2023/02/26 02:12:06;;;;;;;5.45;3.25;;;;;;;0.66;85.78;97581.06;4187713;28;20209;-83
2023/02/26 02:14:14;;;;;;;5.20;3.60;;;;;;;0.66;85.17;97583.63;4197541;28;20206;-83
2023/02/26 02:16:27;;;;;;;5.20;3.45;;;;;;;0.66;85.94;97581.06;4202295;28;20609;-83
2023/02/26 02:18:38;;;;;;;4.53;3.00;;;;;;;0.63;85.22;97580.31;4203578;28;20232;-83
2023/02/26 02:21:00;;;;;;;5.05;3.22;;;;;;;0.57;84.80;97580.53;4184918;28;20209;-83
2023/02/26 02:23:09;;;;;;;4.68;2.92;;;;;;;0.51;84.13;97585.91;4201557;28;20205;-83
2023/02/26 02:25:26;;;;;;;3.78;3.30;;;;;;;0.49;84.55;97590.25;4204007;28;20783;-84
2023/02/26 02:27:36;;;;;;;3.88;3.10;;;;;;;0.48;85.04;97594.56;4195689;28;20201;-84
2023/02/26 02:30:16;;;;;;;5.35;3.60;;;;;;;0.48;85.20;97597.13;4195273;28;20832;-83
2023/02/26 02:32:22;;;;;;;3.80;3.42;;;;;;;0.44;85.02;97602.44;4203100;28;20663;-81
2023/02/26 02:34:30;;;;;;;4.20;3.13;;;;;;;0.44;84.97;97592.16;4201894;28;20204;-81
2023/02/26 02:36:37;;;;;;;4.32;3.20;;;;;;;0.47;85.39;97602.31;4190977;28;20201;-81
2023/02/26 02:38:47;;;;;;;4.40;3.10;;;;;;;0.48;85.27;97596.28;4199680;28;20225;-81
2023/02/26 02:40:54;;;;;;;3.40;3.05;;;;;;;0.42;85.14;97600.78;4184027;28;20201;-81
2023/02/26 02:43:02;;;;;;;5.18;2.50;;;;;;;0.39;83.27;97596.59;4184047;28;20341;-81
2023/02/26 02:45:09;;;;;;;4.18;2.65;;;;;;;0.30;82.33;97598.69;4203563;28;20641;-81
2023/02/26 02:47:15;;;;;;;4.80;2.95;;;;;;;0.31;82.24;97598.63;4200660;28;20223;-81
2023/02/26 02:49:25;;;;;;;4.40;2.60;;;;;;;0.28;82.54;97598.72;4179773;28;20236;-81
2023/02/26 02:51:32;;;;;;;6.50;3.00;;;;;;;0.15;81.67;97605.22;4202463;28;20782;-81
2023/02/26 02:53:39;;;;;;;5.32;2.60;;;;;;;0.18;82.61;97597.41;4188714;28;20201;-81
2023/02/26 02:55:49;;;;;;;4.10;2.58;;;;;;;0.25;83.02;97606.53;4199637;28;20208;-81
2023/02/26 02:57:59;;;;;;;5.28;2.67;;;;;;;0.33;83.07;97606.25;4187359;28;20209;-81
2023/02/26 03:00:07;;;;;;;4.82;2.40;;;;;;;0.35;83.61;97619.88;4204829;28;20320;-81
2023/02/26 03:02:14;;;;;;;5.55;2.67;;;;;;;0.35;83.45;97615.56;4188253;28;20820;-81
2023/02/26 03:04:20;;;;;;;6.35;2.00;;;;;;;0.29;82.13;97620.91;4209023;28;20193;-81
2023/02/26 03:06:23;;;;;;;4.57;2.55;;;;;;;0.36;83.16;97618.97;4183343;28;20229;-81
2023/02/26 03:08:30;;;;;;;3.60;2.08;;;;;;;0.43;83.40;97623.81;4190118;28;20213;-81
2023/02/26 03:10:35;;;;;;;3.85;2.40;;;;;;;0.41;84.49;97617.06;4194022;28;20207;-81
2023/02/26 03:12:38;;;;;;;5.90;2.80;;;;;;;0.46;84.42;97621.97;4179295;28;20799;-81
2023/02/26 03:14:44;;;;;;;4.63;2.40;;;;;;;0.50;84.15;97622.72;4211325;28;20239;-81
2023/02/26 03:17:12;;;;;;;5.15;2.70;;;;;;;0.55;84.09;97626.75;4188783;28;20693;-81
2023/02/26 03:19:25;;;;;;;3.20;2.30;;;;;;;0.59;84.92;97623.19;4213170;28;20212;-81
2023/02/26 03:21:43;;;;;;;3.88;2.50;;;;;;;0.63;84.74;97634.16;4187526;28;20205;-81
2023/02/26 03:23:56;;;;;;;4.80;2.63;;;;;;;0.61;85.09;97626.53;4205213;28;20302;-83
2023/02/26 03:26:04;;;;;;;9.05;2.50;;;;;;;0.64;84.36;97634.13;4205863;28;20424;-83
2023/02/26 03:28:13;;;;;;;6.05;2.22;;;;;;;0.66;83.97;97641.75;4181708;28;20206;-83
2023/02/26 03:30:21;;;;;;;8.15;2.60;;;;;;;0.68;83.87;97640.81;4183616;28;20259;-83
2023/02/26 03:32:29;;;;;;;5.70;2.50;;;;;;;0.70;83.77;97643.31;4196064;28;20657;-83
2023/02/26 03:34:40;;;;;;;4.78;2.60;;;;;;;0.70;84.02;97648.44;4194980;28;20213;-83
2023/02/26 03:36:47;;;;;;;3.78;2.22;;;;;;;0.70;84.29;97646.72;4201131;28;20216;-83
2023/02/26 03:38:59;;;;;;;3.33;2.50;;;;;;;0.69;84.59;97644.19;4202047;28;20311;-83
2023/02/26 03:41:06;;;;;;;6.07;2.97;;;;;;;0.69;84.32;97649.34;4197196;28;20439;-83
2023/02/26 03:43:15;;;;;;;4.05;2.50;;;;;;;0.68;83.92;97648.50;4202128;28;20291;-83
2023/02/26 03:45:23;;;;;;;7.22;3.38;;;;;;;0.64;84.03;97649.50;4201841;28;20196;-83
2023/02/26 03:47:27;;;;;;;5.75;2.65;;;;;;;0.61;83.69;97644.47;4203190;28;20231;-83
2023/02/26 03:49:40;;;;;;;9.27;2.45;;;;;;;0.60;83.60;97650.53;4189257;28;20197;-83
2023/02/26 03:51:45;;;;;;;3.60;2.60;;;;;;;0.57;83.70;97655.78;4207073;28;20491;-83
2023/02/26 03:54:19;;;;;;;5.28;2.60;;;;;;;0.53;84.17;97648.25;4195860;28;20233;-83
2023/02/26 03:56:32;;;;;;;5.50;3.50;;;;;;;0.50;84.15;97644.06;4185314;28;20210;-83
2023/02/26 03:58:41;;;;;;;2.50;2.20;;;;;;;0.48;84.00;97650.97;4198052;28;20675;-83
2023/02/26 04:01:09;;;;;;;3.53;2.63;;;;;;;0.42;83.58;97649.50;4194755;28;20296;-83
2023/02/26 04:03:17;;;;;;;10.05;2.80;;;;;;;0.39;83.89;97654.75;4207163;28;20212;-83
2023/02/26 04:05:24;;;;;;;3.65;2.53;;;;;;;0.38;83.83;97655.66;4204458;28;20224;-83
2023/02/26 04:07:28;;;;;;;5.03;3.15;;;;;;;0.38;83.79;97666.75;4206399;28;20200;-83
2023/02/26 04:09:32;;;;;;;3.60;2.70;;;;;;;0.32;83.04;97666.94;4206902;28;20251;-83
2023/02/26 04:11:35;;;;;;;4.90;2.75;;;;;;;0.26;83.08;97658.66;4189163;28;20297;-83
2023/02/26 04:13:38;;;;;;;4.20;2.55;;;;;;;0.21;82.69;97669.06;4199296;28;20235;-83
2023/02/26 04:15:42;;;;;;;3.95;2.65;;;;;;;0.18;83.00;97671.72;4199128;28;20215;-83
2023/02/26 04:17:45;;;;;;;5.75;3.42;;;;;;;0.19;83.03;97675.13;4206744;28;20741;-83
2023/02/26 04:19:48;;;;;;;5.82;3.38;;;;;;;0.18;82.68;97668.31;4200397;28;20714;-83
2023/02/26 04:21:52;;;;;;;4.30;3.00;;;;;;;0.15;82.91;97660.72;4195564;28;20232;-83
2023/02/26 04:23:55;;;;;;;4.00;2.65;;;;;;;0.16;82.54;97664.97;4190342;28;20688;-83
2023/02/26 04:26:02;;;;;;;4.93;2.75;;;;;;;0.09;83.09;97663.50;4202257;28;20248;-83
2023/02/26 04:28:05;;;;;;;5.47;3.15;;;;;;;0.06;82.93;97663.59;4186986;28;20209;-83
2023/02/26 04:30:10;;;;;;;4.10;3.00;;;;;;;0.04;82.80;97663.66;4198864;28;20198;-83
2023/02/26 04:32:13;;;;;;;6.47;3.30;;;;;;;0.02;82.95;97668.00;4196295;28;20214;-83
2023/02/26 04:34:17;;;;;;;4.45;2.80;;;;;;;0.02;83.39;97677.44;4204156;28;20496;-83
2023/02/26 04:36:20;;;;;;;4.63;2.95;;;;;;;0.07;83.42;97678.09;4192881;28;20708;-83
2023/02/26 04:38:24;;;;;;;3.00;2.40;;;;;;;0.03;83.60;97676.53;4188312;28;20217;-83
2023/02/26 04:40:28;;;;;;;8.15;3.03;;;;;;;-0.05;83.54;97688.75;4214848;28;20232;-83
2023/02/26 04:42:31;;;;;;;3.22;2.38;;;;;;;-0.12;82.81;97687.31;4184733;28;20664;-83
2023/02/26 04:44:34;;;;;;;5.20;3.15;;;;;;;-0.15;82.55;97692.53;4196939;28;20205;-83
2023/02/26 04:46:37;;;;;;;4.18;3.00;;;;;;;-0.21;82.34;97679.06;4182484;28;20212;-83
2023/02/26 04:48:41;;;;;;;4.72;2.83;;;;;;;-0.28;82.30;97688.69;4193621;28;20287;-83
2023/02/26 04:50:45;;;;;;;3.22;2.90;;;;;;;-0.34;81.99;97691.44;4190365;28;20216;-83
2023/02/26 04:52:49;;;;;;;5.35;3.58;;;;;;;-0.35;82.20;97687.22;4198920;28;20189;-83
2023/02/26 04:54:53;;;;;;;5.28;3.50;;;;;;;-0.35;82.66;97691.50;4196703;28;20215;-83
2023/02/26 04:56:56;;;;;;;4.70;3.15;;;;;;;-0.38;82.54;97697.53;4199593;28;20212;-83
2023/02/26 04:59:00;;;;;;;5.05;3.25;;;;;;;-0.41;82.56;97691.69;4179998;28;20217;-83
2023/02/26 05:01:05;;;;;;;5.07;3.10;;;;;;;-0.52;82.25;97695.50;4197333;28;20229;-83
2023/02/26 05:03:08;;;;;;;5.68;3.45;;;;;;;-0.56;82.14;97704.97;4198266;28;20627;-83
2023/02/26 05:05:11;;;;;;;7.63;3.25;;;;;;;-0.52;82.46;97703.19;4195995;28;20291;-83
2023/02/26 05:07:15;;;;;;;4.68;4.03;;;;;;;-0.54;83.34;97694.69;4194782;28;20232;-83
2023/02/26 05:09:18;;;;;;;5.13;2.92;;;;;;;-0.55;83.51;97700.72;4199608;28;20213;-83
2023/02/26 05:11:23;;;;;;;6.75;3.90;;;;;;;-0.56;83.11;97709.28;4202197;28;20213;-83
2023/02/26 05:13:26;;;;;;;4.68;3.13;;;;;;;-0.56;82.94;97707.53;4199888;28;20396;-83
2023/02/26 05:15:30;;;;;;;4.40;3.15;;;;;;;-0.56;83.32;97714.41;4184794;28;20233;-83
2023/02/26 05:17:33;;;;;;;4.93;2.80;;;;;;;-0.61;82.78;97703.47;4196039;28;20229;-83
2023/02/26 05:19:36;;;;;;;7.03;3.30;;;;;;;-0.62;83.04;97710.28;4185883;28;20209;-83
2023/02/26 05:21:40;;;;;;;5.47;2.95;;;;;;;-0.65;82.57;97709.56;4186871;28;20205;-83
2023/02/26 05:23:43;;;;;;;5.75;3.17;;;;;;;-0.69;82.79;97708.81;4199772;28;20232;-83
2023/02/26 05:25:46;;;;;;;5.10;3.20;;;;;;;-0.66;82.98;97708.72;4210813;28;20662;-83
2023/02/26 05:27:53;;;;;;;5.60;3.15;;;;;;;-0.63;82.53;97720.56;4181032;28;20724;-83
2023/02/26 05:29:56;;;;;;;5.43;3.15;;;;;;;-0.63;82.88;97716.31;4190672;28;20256;-83
2023/02/26 05:31:59;;;;;;;4.80;3.42;;;;;;;-0.60;83.18;97710.25;4206906;28;20204;-83
2023/02/26 05:34:02;;;;;;;4.72;3.30;;;;;;;-0.63;83.44;97718.88;4196744;28;20821;-83
2023/02/26 05:36:06;;;;;;;4.82;3.45;;;;;;;-0.66;83.32;97728.34;4194878;28;20259;-83
2023/02/26 05:38:09;;;;;;;6.10;3.10;;;;;;;-0.72;82.73;97725.97;4194168;28;20202;-83
2023/02/26 05:40:13;;;;;;;4.30;2.95;;;;;;;-0.72;82.46;97724.28;4206211;28;20697;-83
2023/02/26 05:42:16;;;;;;;5.55;3.28;;;;;;;-0.71;82.99;97728.47;4195884;28;20206;-83
2023/02/26 05:44:21;;;;;;;5.07;3.45;;;;;;;-0.69;82.79;97736.13;4200954;28;20201;-83
2023/02/26 05:46:24;;;;;;;4.68;3.10;;;;;;;-0.67;83.37;97742.88;4202596;28;20209;-83
2023/02/26 05:48:27;;;;;;;3.95;2.88;;;;;;;-0.65;83.32;97740.28;4199659;28;20676;-83
2023/02/26 05:50:30;;;;;;;3.55;2.85;;;;;;;-0.68;83.80;97740.38;4200661;28;20210;-83
2023/02/26 05:52:34;;;;;;;4.70;2.85;;;;;;;-0.66;83.79;97743.69;4204984;28;20201;-83
2023/02/26 05:54:37;;;;;;;4.55;2.95;;;;;;;-0.70;83.06;97742.13;4209707;28;20677;-83
2023/02/26 05:56:40;;;;;;;5.43;3.30;;;;;;;-0.74;82.16;97758.47;4198770;28;20205;-83
2023/02/26 05:58:43;;;;;;;3.65;3.05;;;;;;;-0.82;81.97;97750.19;4191981;28;20221;-83
2023/02/26 06:00:47;;;;;;;8.40;3.10;;;;;;;-0.82;81.68;97751.00;4197534;28;20631;-83
2023/02/26 06:02:50;;;;;;;5.43;3.20;;;;;;;-0.81;81.40;97757.81;4189750;28;20201;-83
2023/02/26 06:04:54;;;;;;;5.47;3.10;;;;;;;-0.90;82.52;97759.81;4192613;28;20233;-83
2023/02/26 06:06:57;;;;;;;4.63;3.10;;;;;;;-0.95;81.42;97761.63;4210509;28;20233;-83
2023/02/26 06:09:01;;;;;;;3.13;2.45;;;;;;;-0.94;81.04;97765.88;4184638;28;20209;-83
2023/02/26 06:11:04;;;;;;;6.35;3.33;;;;;;;-0.95;81.43;97761.63;4200969;28;20213;-83
2023/02/26 06:13:07;;;;;;;4.10;3.28;;;;;;;-0.96;82.10;97772.78;4199883;28;20201;-83
2023/02/26 06:15:11;;;;;;;5.60;3.15;;;;;;;-0.92;82.17;97780.31;4197522;28;20608;-83
2023/02/26 06:17:15;;;;;;;4.68;3.05;;;;;;;-0.92;82.85;97779.47;4203717;28;20632;-83
2023/02/26 06:19:21;;;;;;;3.83;2.80;;;;;;;-0.91;82.87;97787.09;4183577;28;20751;-83
2023/02/26 06:21:24;;;;;;;4.70;2.80;;;;;;;-0.91;82.05;97788.81;4196032;28;20301;-83
2023/02/26 06:23:28;;;;;;;5.53;3.38;;;;;;;-0.94;81.98;97787.19;4176031;28;20216;-83
2023/02/26 06:25:31;;;;;;;5.05;2.90;;;;;;;-0.94;81.95;97788.91;4195545;28;20313;-83
2023/02/26 06:27:34;;;;;;;5.57;3.13;;;;;;;-0.96;81.93;97790.69;4194455;28;20209;-83
2023/02/26 06:29:38;;;;;;;5.50;3.28;;;;;;;-0.97;81.92;97800.97;4202233;28;20208;-83
2023/02/26 06:31:41;;;;;;;3.28;2.53;;;;;;;-1.00;82.05;97809.53;4186211;28;20206;-83
2023/02/26 06:33:45;;;;;;;5.00;3.00;;;;;;;-0.98;82.38;97809.50;4204785;28;20258;-83
2023/02/26 06:35:49;;;;;;;5.10;3.28;;;;;;;-0.94;83.52;97802.53;4196865;28;20319;-83
2023/02/26 06:37:52;;;;;;;4.40;3.03;;;;;;;-0.84;83.99;97813.38;4197651;28;21011;-83
2023/02/26 06:39:55;;;;;;;5.55;3.10;;;;;;;-0.75;84.09;97818.19;4203272;28;20234;-83
2023/02/26 06:41:58;;;;;;;4.60;3.25;;;;;;;-0.64;84.51;97823.84;4191095;28;20880;-83
2023/02/26 06:44:02;;;;;;;5.28;3.10;;;;;;;-0.59;84.22;97832.22;4187594;28;20228;-83
2023/02/26 06:46:05;;;;;;;14.93;8.60;;;;;;;-0.52;84.06;97826.06;4198999;28;20205;-83
2023/02/26 06:48:08;;;;;;;8.38;3.85;;;;;;;-0.48;84.38;97836.16;4202241;28;20202;-83
2023/02/26 06:50:13;;;;;;;5.03;3.20;;;;;;;-0.43;84.65;97836.84;4198662;28;20205;-83
2023/02/26 06:52:16;;;;;;;3.90;2.78;;;;;;;-0.35;84.56;97851.09;4202805;28;20198;-83
2023/02/26 06:54:19;;;;;;;4.35;3.00;;;;;;;-0.33;84.61;97844.22;4197558;28;20208;-83
2023/02/26 06:56:22;;;;;;;7.15;3.13;;;;;;;-0.26;84.27;97844.88;4198525;28;20208;-83
2023/02/26 06:58:28;;;;;;;4.35;2.20;;;;;;;-0.19;84.69;97849.75;4201884;28;20205;-83
2023/02/26 07:00:31;;;;;;;5.00;2.63;;;;;;;-0.07;84.57;97861.38;4200914;28;20296;-83
2023/02/26 07:02:34;;;;;;;8.30;4.47;;;;;;;0.01;84.05;97862.78;4196761;28;20209;-83
2023/02/26 07:04:37;;;;;;;5.07;3.05;;;;;;;0.07;83.76;97862.59;4186019;28;20706;-83
2023/02/26 07:06:42;;;;;;;8.48;5.30;;;;;;;0.08;84.13;97869.41;4183389;28;20260;-83
2023/02/26 07:08:45;;;;;;;15.52;9.82;;;;;;;0.01;81.97;97871.31;4204229;28;20205;-83
2023/02/26 07:10:49;;;;;;;17.35;10.88;;;;;;;-0.03;82.27;97865.50;4202151;28;20201;-83
2023/02/26 07:12:52;;;;;;;18.08;12.05;;;;;;;-0.02;83.01;97875.69;4196821;28;20201;-83
2023/02/26 07:14:55;;;;;;;16.80;11.27;;;;;;;0.00;83.32;97871.38;4181151;28;20272;-83
2023/02/26 07:16:58;;;;;;;17.40;10.30;;;;;;;0.00;83.63;97874.78;4202336;28;20304;-85
2023/02/26 07:19:01;;;;;;;16.00;8.68;;;;;;;-0.07;82.54;97882.69;4197939;28;20213;-85
2023/02/26 07:21:05;;;;;;;11.05;8.00;;;;;;;-0.06;83.06;97878.41;4197280;28;20233;-85
2023/02/26 07:23:10;;;;;;;13.75;9.55;;;;;;;-0.04;83.49;97884.34;4200579;28;20292;-85
2023/02/26 07:25:13;;;;;;;12.35;8.60;;;;;;;0.01;83.58;97880.72;4198451;28;20201;-85
2023/02/26 07:27:17;;;;;;;14.38;7.63;;;;;;;0.10;84.41;97890.69;4181107;28;20214;-85
2023/02/26 07:29:20;;;;;;;10.52;6.90;;;;;;;0.18;84.30;97883.59;4185478;28;20201;-85
2023/02/26 07:31:23;;;;;;;11.48;7.05;;;;;;;0.26;84.86;97887.63;4198619;28;20210;-85
2023/02/26 07:33:27;;;;;;;8.00;6.20;;;;;;;0.31;84.50;97888.28;4197128;28;20241;-85
2023/02/26 07:35:30;;;;;;;10.38;6.85;;;;;;;0.32;83.71;97882.28;4200425;28;20450;-85
2023/02/26 07:37:33;;;;;;;5.03;4.13;;;;;;;0.37;84.39;97887.28;4196879;28;20205;-86
2023/02/26 07:39:38;;;;;;;9.32;6.75;;;;;;;0.49;84.56;97887.72;4201220;28;20209;-85
2023/02/26 07:41:41;;;;;;;9.90;6.82;;;;;;;0.57;84.78;97893.41;4200842;28;20290;-83
2023/02/26 07:43:49;;;;;;;13.27;7.53;;;;;;;0.64;85.47;97900.03;4199205;28;20281;-83
2023/02/26 07:45:53;;;;;;;8.75;5.78;;;;;;;0.69;84.93;97903.28;4196720;28;20706;-82
2023/02/26 07:47:56;;;;;;;8.50;6.35;;;;;;;0.72;85.20;97898.06;4196162;28;20205;-84
2023/02/26 07:50:00;;;;;;;8.48;5.78;;;;;;;0.81;84.63;97901.13;4195736;28;20216;-85
2023/02/26 07:52:06;;;;;;;9.02;5.03;;;;;;;0.93;84.86;97903.28;4190213;28;20240;-84
2023/02/26 07:54:09;;;;;;;7.00;4.68;;;;;;;1.05;85.35;97908.00;4198570;28;20197;-90
2023/02/26 07:56:14;;;;;;;9.50;5.80;;;;;;;1.14;84.63;97912.84;4197606;28;20220;-87
2023/02/26 07:58:17;;;;;;;7.65;4.95;;;;;;;1.25;84.80;97921.00;4199525;28;20245;-86
2023/02/26 08:00:20;;;;;;;8.40;5.65;;;;;;;1.42;84.18;97925.50;4197391;28;20200;-87
2023/02/26 08:02:24;;;;;;;9.77;7.10;;;;;;;1.63;83.71;97937.56;4185868;28;20752;-87
2023/02/26 08:04:27;;;;;;;10.70;6.20;;;;;;;1.81;83.30;97944.63;4203133;28;20293;-88
2023/02/26 08:06:31;;;;;;;9.77;6.40;;;;;;;1.94;82.34;97941.56;4197687;28;20240;-85
2023/02/26 08:08:34;;;;;;;9.43;6.00;;;;;;;2.25;82.75;97946.38;4186098;28;20693;-85
2023/02/26 08:10:38;;;;;;;5.75;3.40;;;;;;;2.45;81.23;97948.13;4192728;28;20205;-85
2023/02/26 08:12:45;;;;;;;16.38;11.38;;;;;;;2.55;80.88;97946.84;4196644;28;20243;-85
2023/02/26 08:14:48;;;;;;;41.08;21.08;;;;;;;2.65;80.79;97948.19;4198457;28;20668;-84
2023/02/26 08:16:52;;;;;;;5.43;3.70;;;;;;;2.83;79.66;97947.44;4186446;28;20251;-85
2023/02/26 08:18:55;;;;;;;14.48;9.23;;;;;;;2.94;78.87;97945.25;4189020;28;20205;-85
2023/02/26 08:20:58;;;;;;;4.43;3.63;;;;;;;3.16;79.98;97954.63;4183808;28;20202;-85
2023/02/26 08:23:01;;;;;;;8.25;6.07;;;;;;;3.20;79.72;97955.31;4183222;28;20784;-84
2023/02/26 08:25:05;;;;;;;6.57;5.22;;;;;;;3.04;79.76;97952.56;4203579;28;20220;-84
2023/02/26 08:27:08;;;;;;;6.53;4.53;;;;;;;2.82;78.34;97950.91;4196868;28;20219;-85
2023/02/26 08:29:15;;;;;;;4.97;3.00;;;;;;;2.62;78.52;97948.28;4198434;28;20257;-85
2023/02/26 08:31:18;;;;;;;8.85;4.78;;;;;;;2.55;79.10;97954.56;4178993;28;20237;-84
2023/02/26 08:33:21;;;;;;;3.05;2.20;;;;;;;2.46;78.21;97949.78;4188829;28;20668;-85
2023/02/26 08:35:27;;;;;;;5.90;2.70;;;;;;;2.46;78.55;97956.66;4192266;28;20233;-84
2023/02/26 08:37:30;;;;;;;3.60;2.15;;;;;;;2.51;79.38;97950.47;4196978;28;20715;-83
2023/02/26 08:39:37;;;;;;;3.38;1.90;;;;;;;2.46;78.67;97952.34;4201228;28;20208;-85
2023/02/26 08:41:40;;;;;;;8.15;3.30;;;;;;;2.55;79.50;97954.56;4193907;28;20213;-83
2023/02/26 08:43:43;;;;;;;5.72;2.83;;;;;;;2.59;79.90;97957.88;4204556;28;20247;-82
2023/02/26 08:45:48;;;;;;;6.95;2.10;;;;;;;2.40;79.48;97960.31;4187807;28;20694;-83
2023/02/26 08:47:54;;;;;;;6.35;2.72;;;;;;;2.43;79.31;97955.03;4201907;28;20196;-82
2023/02/26 08:49:59;;;;;;;5.47;3.00;;;;;;;2.37;78.95;97964.75;4186713;28;20205;-82
2023/02/26 08:52:03;;;;;;;4.05;2.63;;;;;;;2.18;79.55;97971.50;4207624;28;20212;-82
2023/02/26 08:54:06;;;;;;;3.90;1.95;;;;;;;2.16;78.87;97972.44;4199810;28;20239;-83
2023/02/26 08:56:09;;;;;;;2.22;1.70;;;;;;;2.17;79.72;97974.13;4199103;28;20197;-82
2023/02/26 08:58:12;;;;;;;4.35;2.90;;;;;;;2.29;79.95;97973.66;4202881;28;20209;-82
2023/02/26 09:00:17;;;;;;;4.55;1.90;;;;;;;2.30;80.12;97975.31;4206883;28;20691;-84
2023/02/26 09:02:22;;;;;;;3.15;1.88;;;;;;;2.18;78.88;97976.63;4204851;28;20244;-83
2023/02/26 09:04:27;;;;;;;4.80;2.55;;;;;;;2.14;79.80;97969.09;4179607;28;20213;-81
2023/02/26 09:06:33;;;;;;;3.30;2.08;;;;;;;2.09;80.54;97974.41;4197518;28;20712;-82
2023/02/26 09:08:36;;;;;;;4.07;1.90;;;;;;;2.06;79.85;97979.66;4185493;28;20206;-84
2023/02/26 09:10:39;;;;;;;5.85;1.90;;;;;;;1.97;79.58;97982.56;4201538;28;20296;-86
2023/02/26 09:12:43;;;;;;;4.65;2.00;;;;;;;1.80;80.87;97978.09;4202381;28;20216;-86
2023/02/26 09:14:47;;;;;;;4.03;2.10;;;;;;;1.74;81.26;97984.28;4202349;28;20601;-87
2023/02/26 09:16:50;;;;;;;6.07;2.55;;;;;;;1.79;81.41;97981.53;4188260;28;20209;-88
2023/02/26 09:18:55;;;;;;;6.10;2.70;;;;;;;1.87;82.01;97989.84;4200429;28;20712;-87
2023/02/26 09:20:58;;;;;;;4.25;2.85;;;;;;;1.86;81.70;97985.59;4194405;28;20681;-86
2023/02/26 09:23:02;;;;;;;3.75;2.60;;;;;;;1.88;81.65;97982.06;4187030;28;20217;-87
2023/02/26 09:25:06;;;;;;;3.05;2.15;;;;;;;1.96;81.58;97993.72;4218627;28;20299;-86
2023/02/26 09:27:09;;;;;;;3.30;2.05;;;;;;;2.02;80.75;97995.25;4198094;28;20490;-87
2023/02/26 09:29:13;;;;;;;5.80;2.83;;;;;;;1.98;81.86;97991.94;4189841;28;20292;-87
2023/02/26 09:31:17;;;;;;;3.95;2.03;;;;;;;2.05;82.29;98000.28;4201295;28;20684;-86
2023/02/26 09:33:21;;;;;;;3.42;2.95;;;;;;;2.03;82.24;97999.47;4195296;28;20210;-85
2023/02/26 09:35:26;;;;;;;4.07;2.50;;;;;;;1.86;81.73;97994.13;4200041;28;20242;-87
2023/02/26 09:37:29;;;;;;;4.03;2.40;;;;;;;1.89;82.07;97996.56;4196553;28;20201;-88
2023/02/26 09:39:33;;;;;;;4.40;2.72;;;;;;;1.79;82.59;98004.66;4196789;28;20350;-85
2023/02/26 09:41:43;;;;;;;4.90;2.80;;;;;;;1.86;82.60;97999.25;4183367;28;20201;-85
2023/02/26 09:44:17;;;;;;;3.80;2.05;;;;;;;2.05;81.48;98010.56;4185184;28;20324;-87
2023/02/26 09:46:28;;;;;;;4.07;2.53;;;;;;;1.94;81.48;98012.69;4198995;28;20704;-82
2023/02/26 09:48:34;;;;;;;6.97;4.05;;;;;;;1.89;81.21;98002.59;4201084;28;20204;-81
2023/02/26 09:50:42;;;;;;;2.97;2.22;;;;;;;1.83;80.34;98021.66;4202064;28;20669;-81
2023/02/26 09:52:51;;;;;;;2.70;1.92;;;;;;;1.85;81.61;98023.31;4198900;28;20205;-83
2023/02/26 09:54:58;;;;;;;12.07;7.93;;;;;;;2.08;81.85;98025.88;4185276;28;20236;-82
2023/02/26 09:57:01;;;;;;;13.65;8.65;;;;;;;2.19;81.43;98027.16;4194601;28;20190;-83